Time;durP1;ratioP1;P1;durP2;ratioP2;P2;SDS_P1;SDS_P2;PMS_P1;PMS_P2;Temp;Humidity;BMP_temperature;BMP_pressure;BME280_temperature;BME280_humidity;BME280_pressure;Samples;Min_cycle;Max_cycle;Signal;HPM_P1;HPM_P2
2023/12/04 00:01:46;;;;;;;5.38;3.50;;;15.20;47.40;;;;;;5096401;27;45282;-61
2023/12/04 00:04:13;;;;;;;4.32;2.80;;;15.20;46.20;;;;;;5089394;27;46538;-61
2023/12/04 00:06:39;;;;;;;4.00;3.03;;;15.20;46.20;;;;;;5096153;27;44659;-61
2023/12/04 00:09:06;;;;;;;4.18;2.70;;;15.30;46.30;;;;;;5098169;27;45049;-61
2023/12/04 00:11:33;;;;;;;4.35;2.90;;;15.30;46.20;;;;;;5099955;27;45421;-61
2023/12/04 00:14:00;;;;;;;5.90;3.40;;;15.30;46.20;;;;;;5096798;27;46278;-61
2023/12/04 00:16:27;;;;;;;4.03;3.10;;;15.30;46.20;;;;;;5097202;27;45240;-61
2023/12/04 00:18:55;;;;;;;4.57;3.08;;;15.20;46.00;;;;;;5094580;27;45158;-61
2023/12/04 00:21:22;;;;;;;4.63;3.10;;;15.20;46.00;;;;;;5095014;27;45032;-61
2023/12/04 00:23:49;;;;;;;4.68;2.90;;;15.20;46.20;;;;;;5087665;27;45189;-61
2023/12/04 00:26:16;;;;;;;5.45;2.78;;;15.20;46.20;;;;;;5100661;27;45189;-61
2023/12/04 00:28:43;;;;;;;5.15;3.28;;;15.20;46.10;;;;;;5090649;27;45244;-61
2023/12/04 00:31:10;;;;;;;4.07;2.90;;;15.20;46.00;;;;;;5092217;27;45133;-61
2023/12/04 00:33:37;;;;;;;4.57;3.13;;;15.20;45.90;;;;;;5092581;27;45328;-61
2023/12/04 00:36:07;;;;;;;4.38;2.70;;;15.20;45.70;;;;;;5092183;27;45208;-61
2023/12/04 00:38:33;;;;;;;3.90;2.95;;;15.20;45.90;;;;;;5088910;27;45181;-61
2023/12/04 00:41:00;;;;;;;3.88;2.72;;;15.20;45.90;;;;;;5089737;27;45329;-61
2023/12/04 00:43:27;;;;;;;5.35;2.70;;;15.20;45.90;;;;;;5091599;27;47477;-61
2023/12/04 00:45:53;;;;;;;4.70;2.78;;;15.20;45.70;;;;;;5095078;27;45082;-61
2023/12/04 00:48:20;;;;;;;4.88;3.13;;;15.20;45.80;;;;;;5083845;27;45346;-61
2023/12/04 00:50:47;;;;;;;4.68;2.70;;;15.20;45.70;;;;;;5096853;27;45262;-61
2023/12/04 00:53:15;;;;;;;4.50;2.97;;;15.20;45.50;;;;;;5100964;27;46581;-61
2023/12/04 00:55:42;;;;;;;4.38;2.67;;;15.30;45.50;;;;;;5095041;27;45263;-61
2023/12/04 00:58:09;;;;;;;3.60;2.50;;;15.30;45.40;;;;;;5090026;27;45108;-61
2023/12/04 01:00:36;;;;;;;5.13;3.10;;;15.30;45.40;;;;;;5091538;27;45387;-61
2023/12/04 01:03:03;;;;;;;3.35;2.67;;;15.30;45.40;;;;;;5086634;27;45245;-61
2023/12/04 01:05:29;;;;;;;4.75;2.97;;;15.30;45.40;;;;;;5099141;27;45150;-61
2023/12/04 01:07:56;;;;;;;5.40;3.33;;;15.20;45.40;;;;;;5098390;27;45246;-61
2023/12/04 01:10:24;;;;;;;3.85;2.80;;;15.20;45.50;;;;;;5096138;27;45255;-61
2023/12/04 01:12:51;;;;;;;4.47;2.70;;;15.20;45.40;;;;;;5084643;27;45268;-61
2023/12/04 01:15:18;;;;;;;4.97;3.00;;;15.20;45.40;;;;;;5090800;27;45125;-61
2023/12/04 01:17:44;;;;;;;3.88;2.47;;;15.20;45.40;;;;;;5100004;27;45078;-61
2023/12/04 01:20:12;;;;;;;4.25;2.78;;;15.20;45.40;;;;;;5085088;27;45047;-61
2023/12/04 01:22:38;;;;;;;4.10;2.65;;;15.20;45.40;;;;;;5091445;27;47417;-61
2023/12/04 01:25:06;;;;;;;4.07;3.10;;;15.20;45.30;;;;;;5103651;27;44637;-61
2023/12/04 01:27:35;;;;;;;4.45;2.90;;;15.20;45.30;;;;;;5093699;27;45162;-61
2023/12/04 01:30:02;;;;;;;4.35;2.83;;;15.20;45.10;;;;;;5098611;27;45420;-61
2023/12/04 01:32:28;;;;;;;4.90;2.70;;;15.20;45.10;;;;;;5098810;27;45193;-61
2023/12/04 01:34:55;;;;;;;4.55;2.85;;;15.20;45.10;;;;;;5096625;27;45120;-61
2023/12/04 01:37:22;;;;;;;5.22;3.30;;;15.20;44.00;;;;;;5095434;27;45237;-61
2023/12/04 01:39:48;;;;;;;4.05;2.90;;;15.20;43.30;;;;;;5103202;27;44811;-61
2023/12/04 01:42:15;;;;;;;3.78;2.80;;;15.10;42.90;;;;;;5091081;27;46274;-61
2023/12/04 01:44:43;;;;;;;3.90;2.78;;;15.10;42.70;;;;;;5099225;27;46197;-61
2023/12/04 01:47:11;;;;;;;4.85;3.08;;;15.10;42.30;;;;;;5100007;27;45230;-61
2023/12/04 01:49:38;;;;;;;6.18;3.03;;;15.10;42.00;;;;;;5095421;27;45250;-61
2023/12/04 01:52:05;;;;;;;4.32;2.90;;;15.10;41.90;;;;;;5090962;27;46965;-61
2023/12/04 01:54:33;;;;;;;4.25;2.88;;;15.10;41.70;;;;;;5100905;27;45619;-61
2023/12/04 01:56:59;;;;;;;4.97;3.13;;;15.10;41.50;;;;;;5094883;27;45118;-61
2023/12/04 01:59:26;;;;;;;4.63;2.78;;;15.00;41.40;;;;;;5103443;27;45101;-61
2023/12/04 02:01:55;;;;;;;4.57;2.90;;;15.00;41.50;;;;;;5098213;27;45117;-61
2023/12/04 02:04:21;;;;;;;4.78;3.33;;;15.00;41.40;;;;;;5092849;27;45179;-61
2023/12/04 02:06:48;;;;;;;4.85;2.97;;;15.00;41.10;;;;;;5097541;27;45152;-61
2023/12/04 02:09:16;;;;;;;5.50;3.35;;;15.00;41.40;;;;;;5100883;27;45185;-60
2023/12/04 02:11:42;;;;;;;4.72;3.22;;;15.00;41.30;;;;;;5088475;27;45281;-60
2023/12/04 02:14:09;;;;;;;5.45;3.40;;;14.90;41.00;;;;;;5100551;27;45291;-60
2023/12/04 02:16:40;;;;;;;3.58;3.00;;;14.90;40.90;;;;;;5093774;27;45142;-60
2023/12/04 02:19:12;;;;;;;4.90;3.25;;;14.90;40.90;;;;;;5096500;27;44760;-60
2023/12/04 02:21:39;;;;;;;5.40;3.00;;;14.90;40.70;;;;;;5098786;27;45205;-60
2023/12/04 02:24:07;;;;;;;4.13;2.72;;;14.90;40.60;;;;;;5099406;27;45262;-60
2023/12/04 02:26:40;;;;;;;4.28;2.97;;;14.90;40.60;;;;;;5104753;27;44653;-60
2023/12/04 02:29:15;;;;;;;4.72;2.88;;;15.00;40.50;;;;;;5095692;27;45355;-60
2023/12/04 02:31:42;;;;;;;5.63;3.25;;;15.00;40.10;;;;;;5092177;27;44917;-60
2023/12/04 02:34:11;;;;;;;4.45;2.90;;;15.00;40.00;;;;;;5101489;27;45129;-60
2023/12/04 02:36:39;;;;;;;4.55;3.03;;;15.00;39.90;;;;;;5087110;27;45105;-60
2023/12/04 02:39:07;;;;;;;5.43;3.17;;;15.00;40.00;;;;;;5098678;27;45140;-60
2023/12/04 02:41:35;;;;;;;3.85;2.70;;;15.00;39.80;;;;;;5090848;27;46227;-60
2023/12/04 02:44:01;;;;;;;5.50;3.20;;;15.00;40.00;;;;;;5095417;27;45293;-60
2023/12/04 02:46:28;;;;;;;4.22;2.78;;;15.00;39.70;;;;;;5102973;27;44556;-60
2023/12/04 02:48:55;;;;;;;4.13;2.72;;;15.00;39.80;;;;;;5090641;27;45442;-60
2023/12/04 02:51:22;;;;;;;5.28;3.28;;;14.90;39.50;;;;;;5092739;27;47021;-60
2023/12/04 02:53:48;;;;;;;5.72;3.28;;;14.90;40.30;;;;;;5104693;27;45231;-60
2023/12/04 02:56:17;;;;;;;4.00;2.90;;;14.90;39.90;;;;;;5097429;27;45284;-60
2023/12/04 02:58:43;;;;;;;6.53;3.40;;;14.90;39.50;;;;;;5094529;27;45127;-60
2023/12/04 03:01:10;;;;;;;3.47;2.40;;;14.90;39.40;;;;;;5104718;27;45179;-60
2023/12/04 03:03:37;;;;;;;4.57;2.72;;;14.90;39.50;;;;;;5099021;27;45165;-60
2023/12/04 03:06:04;;;;;;;4.57;2.78;;;14.90;39.40;;;;;;5102072;27;45073;-60
2023/12/04 03:08:31;;;;;;;4.57;2.63;;;14.90;39.20;;;;;;5097031;27;45123;-60
2023/12/04 03:10:57;;;;;;;3.78;2.65;;;14.90;39.30;;;;;;5097419;27;46046;-60
2023/12/04 03:13:25;;;;;;;3.38;2.70;;;14.90;39.20;;;;;;5089882;27;45214;-60
2023/12/04 03:15:52;;;;;;;4.35;3.10;;;14.90;39.10;;;;;;5092473;27;45123;-59
2023/12/04 03:18:18;;;;;;;3.90;2.83;;;14.90;39.00;;;;;;5086831;27;44689;-60
2023/12/04 03:20:45;;;;;;;4.18;2.80;;;14.90;38.90;;;;;;5101963;27;47354;-60
2023/12/04 03:23:11;;;;;;;4.70;2.85;;;14.90;38.80;;;;;;5099730;27;45181;-60
2023/12/04 03:25:38;;;;;;;4.25;2.65;;;14.90;38.80;;;;;;5104689;27;45140;-60
2023/12/04 03:28:05;;;;;;;4.15;2.83;;;14.90;38.60;;;;;;5092531;27;45245;-60
2023/12/04 03:30:33;;;;;;;3.70;2.70;;;14.90;38.40;;;;;;5092903;27;47020;-60
2023/12/04 03:33:00;;;;;;;5.63;3.28;;;14.90;38.40;;;;;;5084646;27;45077;-60
2023/12/04 03:35:27;;;;;;;4.53;2.97;;;14.90;38.30;;;;;;5103883;27;45133;-60
2023/12/04 03:37:54;;;;;;;3.88;2.88;;;14.90;38.30;;;;;;5093921;27;45330;-60
2023/12/04 03:40:21;;;;;;;4.65;2.60;;;14.90;38.20;;;;;;5094677;27;46258;-60
2023/12/04 03:42:48;;;;;;;3.47;2.40;;;14.90;38.10;;;;;;5089956;27;46196;-60
2023/12/04 03:45:14;;;;;;;4.18;2.55;;;14.90;39.40;;;;;;5095855;27;45086;-61
2023/12/04 03:47:42;;;;;;;4.28;2.92;;;14.90;46.30;;;;;;5096716;27;45388;-61
2023/12/04 03:50:10;;;;;;;3.72;2.78;;;14.90;44.60;;;;;;5098132;27;46348;-61
2023/12/04 03:52:37;;;;;;;5.05;3.15;;;14.90;42.10;;;;;;5096446;27;44575;-61
2023/12/04 03:55:05;;;;;;;4.38;2.88;;;14.90;41.10;;;;;;5101400;27;44672;-62
2023/12/04 03:57:32;;;;;;;4.43;2.90;;;14.90;40.60;;;;;;5094184;27;44653;-61
2023/12/04 03:59:59;;;;;;;3.97;2.60;;;14.90;40.00;;;;;;5097561;27;45298;-61
2023/12/04 04:02:25;;;;;;;4.43;2.70;;;14.90;39.90;;;;;;5099955;27;45145;-61
2023/12/04 04:04:53;;;;;;;4.43;2.53;;;14.90;39.40;;;;;;5099565;27;45124;-61
2023/12/04 04:07:21;;;;;;;4.05;2.75;;;14.90;40.50;;;;;;5084852;27;45429;-61
2023/12/04 04:09:47;;;;;;;3.28;2.47;;;14.90;39.10;;;;;;5095953;27;47454;-61
2023/12/04 04:12:14;;;;;;;5.03;2.97;;;14.90;38.90;;;;;;5088822;27;45314;-61
2023/12/04 04:14:41;;;;;;;5.20;2.95;;;14.90;38.50;;;;;;5095667;27;45146;-61
2023/12/04 04:17:08;;;;;;;4.03;2.58;;;14.90;38.50;;;;;;5096282;27;45143;-61
2023/12/04 04:19:34;;;;;;;3.72;2.70;;;14.90;38.30;;;;;;5101768;27;48071;-61
2023/12/04 04:22:03;;;;;;;4.78;3.08;;;14.90;38.20;;;;;;5100924;27;45161;-61
2023/12/04 04:24:30;;;;;;;3.30;2.47;;;14.90;38.00;;;;;;5094097;27;45340;-61
2023/12/04 04:26:56;;;;;;;4.22;2.90;;;15.00;38.10;;;;;;5095687;27;44840;-61
2023/12/04 04:29:23;;;;;;;3.30;2.47;;;15.00;38.10;;;;;;5094423;27;46028;-61
2023/12/04 04:31:50;;;;;;;3.92;2.60;;;14.90;37.90;;;;;;5097012;27;45271;-61
2023/12/04 04:34:17;;;;;;;4.30;3.03;;;14.90;37.70;;;;;;5089657;27;44720;-61
2023/12/04 04:36:44;;;;;;;3.65;2.60;;;14.90;37.70;;;;;;5087461;27;45268;-61
2023/12/04 04:39:13;;;;;;;3.95;2.90;;;14.90;37.60;;;;;;5093613;27;45179;-61
2023/12/04 04:41:40;;;;;;;4.20;2.80;;;14.90;37.70;;;;;;5085461;27;45083;-60
2023/12/04 04:44:07;;;;;;;4.30;2.33;;;14.80;37.70;;;;;;5092659;27;45158;-61
2023/12/04 04:46:34;;;;;;;3.95;2.83;;;14.80;37.50;;;;;;5091941;27;45123;-60
2023/12/04 04:49:01;;;;;;;4.40;2.90;;;14.80;37.70;;;;;;5093644;27;45122;-60
2023/12/04 04:51:29;;;;;;;3.90;2.85;;;14.80;37.60;;;;;;5089529;27;45114;-60
2023/12/04 04:53:55;;;;;;;4.38;2.67;;;14.80;37.50;;;;;;5099644;27;45414;-60
2023/12/04 04:56:23;;;;;;;4.13;2.70;;;14.80;37.40;;;;;;5095960;27;45229;-61
2023/12/04 04:58:50;;;;;;;4.32;2.78;;;14.80;37.40;;;;;;5093984;27;45200;-60
2023/12/04 05:01:17;;;;;;;5.13;2.72;;;14.80;37.40;;;;;;5097054;27;45328;-60
2023/12/04 05:03:44;;;;;;;3.70;2.70;;;14.80;37.20;;;;;;5094502;27;44602;-60
2023/12/04 05:06:11;;;;;;;4.15;2.50;;;14.80;37.10;;;;;;5090919;27;45126;-60
2023/12/04 05:08:38;;;;;;;5.32;2.90;;;14.80;36.90;;;;;;5105268;27;45206;-60
2023/12/04 05:11:05;;;;;;;4.88;2.90;;;14.90;36.90;;;;;;5104182;27;45427;-60
2023/12/04 05:13:33;;;;;;;3.35;2.63;;;14.90;36.90;;;;;;5104237;27;45334;-60
2023/12/04 05:16:00;;;;;;;3.55;2.80;;;14.90;36.90;;;;;;5101405;27;45154;-60
2023/12/04 05:18:27;;;;;;;4.55;2.83;;;14.90;36.70;;;;;;5093119;27;46972;-61
2023/12/04 05:20:53;;;;;;;4.82;3.00;;;14.90;36.50;;;;;;5097815;27;44597;-62
2023/12/04 05:23:20;;;;;;;3.92;2.55;;;14.90;36.60;;;;;;5100170;27;45078;-62
2023/12/04 05:25:47;;;;;;;4.50;3.00;;;14.90;36.60;;;;;;5109801;27;45324;-62
2023/12/04 05:28:14;;;;;;;4.07;3.00;;;14.90;36.60;;;;;;5107325;27;45194;-61
2023/12/04 05:30:42;;;;;;;3.75;2.85;;;14.90;36.60;;;;;;5100174;27;45244;-61
2023/12/04 05:33:08;;;;;;;4.78;3.10;;;14.90;36.60;;;;;;5098244;27;45144;-62
2023/12/04 05:35:37;;;;;;;4.13;2.80;;;14.90;36.90;;;;;;5096217;27;45075;-62
2023/12/04 05:38:04;;;;;;;4.25;3.10;;;14.90;36.80;;;;;;5098928;27;46488;-63
2023/12/04 05:40:30;;;;;;;5.97;3.28;;;14.90;37.10;;;;;;5100936;27;44673;-63
2023/12/04 05:42:57;;;;;;;3.58;2.67;;;14.80;37.00;;;;;;5090022;27;45150;-63
2023/12/04 05:45:24;;;;;;;5.18;3.35;;;14.80;37.20;;;;;;5092157;27;45266;-63
2023/12/04 05:47:53;;;;;;;2.97;2.05;;;14.80;36.80;;;;;;5100302;27;47447;-63
2023/12/04 05:50:20;;;;;;;4.28;2.75;;;14.90;39.70;;;;;;5097820;27;44733;-63
2023/12/04 05:52:46;;;;;;;5.97;2.83;;;14.90;42.20;;;;;;5099793;27;45138;-63
2023/12/04 05:55:13;;;;;;;3.90;2.90;;;14.90;39.60;;;;;;5107395;27;45391;-62
2023/12/04 05:57:40;;;;;;;3.97;2.92;;;14.90;38.60;;;;;;5099389;27;46295;-63
2023/12/04 06:00:12;;;;;;;6.57;3.40;;;14.90;38.20;;;;;;5101378;27;45144;-64
2023/12/04 06:02:39;;;;;;;4.03;2.83;;;14.90;37.90;;;;;;5093947;27;45292;-63
2023/12/04 06:05:08;;;;;;;4.05;2.78;;;14.80;37.70;;;;;;5094798;27;45208;-63
2023/12/04 06:07:35;;;;;;;5.35;3.20;;;14.80;37.60;;;;;;5088827;27;46724;-63
2023/12/04 06:10:02;;;;;;;4.45;2.88;;;14.90;37.40;;;;;;5102489;27;45249;-63
2023/12/04 06:12:29;;;;;;;4.63;2.90;;;14.90;37.30;;;;;;5097651;27;45157;-63
2023/12/04 06:14:56;;;;;;;4.50;3.28;;;14.90;37.30;;;;;;5103886;27;45216;-63
2023/12/04 06:17:22;;;;;;;5.45;2.92;;;14.80;37.10;;;;;;5102133;27;46995;-62
2023/12/04 06:19:49;;;;;;;3.13;2.42;;;14.90;37.00;;;;;;5100843;27;45187;-62
2023/12/04 06:22:19;;;;;;;4.28;3.08;;;14.80;36.80;;;;;;5086888;27;45090;-62
2023/12/04 06:24:47;;;;;;;4.20;3.05;;;14.90;36.90;;;;;;5097296;27;45088;-62
2023/12/04 06:27:17;;;;;;;4.15;2.83;;;14.80;36.90;;;;;;5090812;27;45152;-62
2023/12/04 06:29:45;;;;;;;5.65;3.33;;;14.80;36.90;;;;;;5097130;27;45344;-62
2023/12/04 06:32:13;;;;;;;4.88;2.97;;;14.80;36.90;;;;;;5101618;27;45147;-62
2023/12/04 06:34:40;;;;;;;4.85;2.90;;;14.80;36.90;;;;;;5104787;27;45106;-62
2023/12/04 06:37:10;;;;;;;4.88;2.72;;;14.80;36.80;;;;;;5093151;27;47259;-62
2023/12/04 06:39:40;;;;;;;3.30;2.60;;;14.80;37.00;;;;;;5093375;27;45262;-62
2023/12/04 06:42:08;;;;;;;4.40;3.00;;;14.80;37.60;;;;;;5096255;27;45136;-62
2023/12/04 06:44:36;;;;;;;4.25;3.08;;;14.80;38.00;;;;;;5097468;27;45134;-62
2023/12/04 06:47:03;;;;;;;4.35;2.80;;;14.90;38.40;;;;;;5093125;27;46193;-62
2023/12/04 06:49:32;;;;;;;4.40;3.00;;;14.90;38.50;;;;;;5096351;27;45443;-62
2023/12/04 06:52:00;;;;;;;4.22;2.90;;;14.90;39.90;;;;;;5097839;27;45081;-62
2023/12/04 06:54:26;;;;;;;3.95;2.80;;;14.90;38.80;;;;;;5089410;27;45263;-62
2023/12/04 06:56:55;;;;;;;3.47;2.53;;;14.90;38.80;;;;;;5104457;27;46359;-62
2023/12/04 06:59:22;;;;;;;4.78;2.70;;;14.90;39.30;;;;;;5095529;27;45164;-62
2023/12/04 07:01:48;;;;;;;5.32;2.97;;;15.00;39.20;;;;;;5096797;27;45316;-62
2023/12/04 07:04:20;;;;;;;4.32;2.60;;;15.00;39.20;;;;;;5103661;27;45256;-62
2023/12/04 07:06:48;;;;;;;4.32;2.78;;;15.00;39.20;;;;;;5096884;27;45394;-62
2023/12/04 07:09:15;;;;;;;4.05;2.65;;;15.00;39.20;;;;;;5091907;27;45165;-62
2023/12/04 07:11:41;;;;;;;3.85;2.70;;;15.00;39.30;;;;;;5090688;27;45220;-62
2023/12/04 07:14:10;;;;;;;3.55;2.60;;;15.00;39.30;;;;;;5106357;27;45457;-62
2023/12/04 07:16:41;;;;;;;3.42;2.78;;;15.00;39.30;;;;;;5101481;27;46995;-62
2023/12/04 07:19:09;;;;;;;4.50;2.80;;;15.00;39.50;;;;;;5095971;27;45142;-62
2023/12/04 07:21:36;;;;;;;4.85;2.80;;;15.00;39.50;;;;;;5088653;27;45178;-62
2023/12/04 07:24:03;;;;;;;5.35;2.85;;;15.00;39.60;;;;;;5090500;27;45371;-62
2023/12/04 07:26:29;;;;;;;5.22;3.15;;;15.00;39.60;;;;;;5090865;27;46389;-62
2023/12/04 07:28:56;;;;;;;4.40;2.85;;;15.00;39.70;;;;;;5093545;27;45232;-62
2023/12/04 07:31:25;;;;;;;3.78;2.80;;;15.00;39.90;;;;;;5095013;27;45186;-62
2023/12/04 07:33:52;;;;;;;4.32;2.92;;;15.00;41.10;;;;;;5093220;27;45231;-62
2023/12/04 07:36:19;;;;;;;4.38;2.85;;;15.00;40.00;;;;;;5087335;27;46526;-62
2023/12/04 07:38:46;;;;;;;3.92;2.60;;;15.00;39.90;;;;;;5094222;27;45160;-62
2023/12/04 07:41:13;;;;;;;5.13;2.95;;;15.00;40.00;;;;;;5084818;27;45107;-62
2023/12/04 07:43:40;;;;;;;4.13;2.72;;;15.00;41.10;;;;;;5094564;27;45030;-62
2023/12/04 07:46:07;;;;;;;4.18;2.97;;;15.00;39.80;;;;;;5095079;27;45187;-62
2023/12/04 07:48:35;;;;;;;4.93;3.10;;;15.00;39.90;;;;;;5095062;27;45133;-62
2023/12/04 07:51:02;;;;;;;4.30;2.95;;;15.10;40.00;;;;;;5095700;27;45223;-62
2023/12/04 07:53:29;;;;;;;3.67;2.67;;;15.10;40.00;;;;;;5100084;27;44869;-62
2023/12/04 07:55:55;;;;;;;3.78;2.63;;;15.10;40.10;;;;;;5097267;27;45322;-62
2023/12/04 07:58:22;;;;;;;4.00;2.90;;;15.00;39.90;;;;;;5093214;27;45117;-62
2023/12/04 08:00:50;;;;;;;3.97;2.75;;;15.10;40.00;;;;;;5100946;27;45211;-63
2023/12/04 08:03:16;;;;;;;3.17;2.60;;;15.10;39.80;;;;;;5097598;27;44720;-62
2023/12/04 08:05:45;;;;;;;3.60;2.83;;;15.10;39.80;;;;;;5091098;27;48726;-62
2023/12/04 08:08:11;;;;;;;4.72;2.50;;;15.20;39.80;;;;;;5099794;27;44618;-63
2023/12/04 08:10:38;;;;;;;4.70;2.63;;;15.10;39.90;;;;;;5085710;27;45216;-63
2023/12/04 08:13:05;;;;;;;3.33;2.22;;;15.10;39.90;;;;;;5088214;27;45102;-62
2023/12/04 08:15:31;;;;;;;3.55;2.72;;;15.10;39.90;;;;;;5097031;27;47090;-62
2023/12/04 08:17:58;;;;;;;4.10;2.80;;;15.10;39.90;;;;;;5099832;27;45200;-62
2023/12/04 08:20:26;;;;;;;3.83;2.72;;;15.10;40.00;;;;;;5099853;27;45148;-62
2023/12/04 08:22:55;;;;;;;3.85;2.47;;;15.10;39.90;;;;;;5091905;27;45296;-62
2023/12/04 08:25:22;;;;;;;3.95;2.80;;;15.10;40.00;;;;;;5102361;27;45343;-63
2023/12/04 08:27:49;;;;;;;3.75;2.65;;;15.10;40.00;;;;;;5094868;27;44648;-63
2023/12/04 08:30:16;;;;;;;4.43;2.65;;;15.10;40.10;;;;;;5096472;27;45137;-62
2023/12/04 08:32:43;;;;;;;3.42;2.60;;;15.10;40.20;;;;;;5093597;27;45102;-62
2023/12/04 08:35:10;;;;;;;3.90;2.70;;;15.10;40.20;;;;;;5093645;27;46540;-62
2023/12/04 08:37:36;;;;;;;3.25;2.53;;;15.20;40.20;;;;;;5094062;27;44629;-62
2023/12/04 08:40:07;;;;;;;3.88;2.47;;;15.20;40.30;;;;;;5096929;27;45100;-62
2023/12/04 08:42:33;;;;;;;3.97;2.50;;;15.20;40.20;;;;;;5095414;27;45129;-61
2023/12/04 08:45:00;;;;;;;4.03;2.58;;;15.20;40.20;;;;;;5095286;27;46557;-63
2023/12/04 08:47:27;;;;;;;4.78;2.47;;;15.20;40.20;;;;;;5091488;27;45035;-63
2023/12/04 08:49:54;;;;;;;3.92;2.47;;;15.20;40.30;;;;;;5090900;27;45106;-62
2023/12/04 08:52:21;;;;;;;4.28;2.70;;;15.20;41.50;;;;;;5097559;27;45127;-62
2023/12/04 08:54:47;;;;;;;3.92;2.75;;;15.20;40.10;;;;;;5100707;27;46245;-62
2023/12/04 08:57:16;;;;;;;3.25;2.47;;;15.20;40.20;;;;;;5095634;27;45177;-62
2023/12/04 08:59:43;;;;;;;2.95;2.17;;;15.20;40.30;;;;;;5084657;27;45137;-62
2023/12/04 09:02:10;;;;;;;4.10;2.70;;;15.20;40.30;;;;;;5098846;27;44878;-62
2023/12/04 09:04:37;;;;;;;5.07;2.85;;;15.10;40.40;;;;;;5096751;27;45261;-63
2023/12/04 09:07:04;;;;;;;5.03;2.92;;;15.10;40.40;;;;;;5096410;27;45082;-63
2023/12/04 09:09:32;;;;;;;102.43;10.07;;;15.10;40.40;;;;;;5089270;27;45187;-62
2023/12/04 09:11:59;;;;;;;27.52;4.60;;;15.20;43.70;;;;;;5098485;27;45228;-63
2023/12/04 09:14:27;;;;;;;11.95;3.60;;;15.20;41.50;;;;;;5103676;27;47347;-62
2023/12/04 09:16:54;;;;;;;6.20;2.72;;;15.10;40.90;;;;;;5096008;27;45231;-62
2023/12/04 09:19:21;;;;;;;9.82;3.20;;;15.10;41.00;;;;;;5091298;27;45139;-63
2023/12/04 09:21:48;;;;;;;7.15;2.60;;;15.10;41.00;;;;;;5093447;27;45374;-62
2023/12/04 09:24:14;;;;;;;11.13;2.83;;;15.10;41.00;;;;;;5091582;27;45267;-62
2023/12/04 09:26:41;;;;;;;4.97;2.60;;;15.10;41.00;;;;;;5084480;27;45198;-62
2023/12/04 09:29:08;;;;;;;3.22;2.10;;;15.10;41.00;;;;;;5094122;27;45140;-62
2023/12/04 09:31:36;;;;;;;4.95;2.72;;;15.10;40.80;;;;;;5099012;27;45232;-62
2023/12/04 09:34:03;;;;;;;4.55;2.70;;;15.10;40.80;;;;;;5102459;27;47506;-62
2023/12/04 09:36:30;;;;;;;4.97;2.47;;;15.10;40.80;;;;;;5094096;27;45068;-62
2023/12/04 09:38:57;;;;;;;6.82;2.50;;;15.10;40.80;;;;;;5090822;27;45224;-62
2023/12/04 09:41:23;;;;;;;5.85;2.78;;;15.10;40.80;;;;;;5086744;27;44865;-62
2023/12/04 09:43:52;;;;;;;4.57;2.63;;;15.10;40.80;;;;;;5086743;27;45497;-62
2023/12/04 09:46:20;;;;;;;3.20;2.35;;;15.10;40.80;;;;;;5092259;27;45225;-62
2023/12/04 09:48:48;;;;;;;5.40;2.55;;;15.20;40.80;;;;;;5095630;27;45096;-62
2023/12/04 09:51:16;;;;;;;4.90;2.80;;;15.20;40.80;;;;;;5089759;27;45343;-61
2023/12/04 09:53:43;;;;;;;3.47;2.80;;;15.20;40.90;;;;;;5086698;27;47469;-62
2023/12/04 09:56:12;;;;;;;4.10;2.22;;;15.20;40.90;;;;;;5098626;27;46234;-62
2023/12/04 09:58:41;;;;;;;4.75;2.60;;;15.20;40.70;;;;;;5096606;27;45158;-62
2023/12/04 10:01:08;;;;;;;4.53;2.70;;;15.20;40.70;;;;;;5100820;27;45295;-62
2023/12/04 10:03:36;;;;;;;3.72;2.60;;;15.20;40.70;;;;;;5099690;27;46938;-62
2023/12/04 10:06:06;;;;;;;4.05;2.50;;;15.20;40.80;;;;;;5092574;27;45678;-62
2023/12/04 10:08:33;;;;;;;4.13;2.33;;;15.10;40.70;;;;;;5104453;27;45175;-62
2023/12/04 10:11:01;;;;;;;3.05;2.08;;;15.20;41.20;;;;;;5099262;27;45324;-61
2023/12/04 10:13:28;;;;;;;4.00;2.40;;;15.10;41.00;;;;;;5105378;27;48447;-61
2023/12/04 10:15:55;;;;;;;3.78;2.38;;;15.10;40.90;;;;;;5098464;27;45102;-61
2023/12/04 10:18:30;;;;;;;3.97;2.17;;;15.20;40.90;;;;;;5101604;27;45158;-61
2023/12/04 10:20:57;;;;;;;2.88;2.03;;;15.10;40.90;;;;;;5097232;27;45156;-61
2023/12/04 10:23:39;;;;;;;3.30;2.33;;;15.20;40.90;;;;;;5095616;27;48311;-61
2023/12/04 10:26:07;;;;;;;3.78;2.63;;;15.20;40.80;;;;;;5098379;27;45232;-61
2023/12/04 10:28:34;;;;;;;4.72;2.63;;;15.20;40.80;;;;;;5100774;27;45183;-61
2023/12/04 10:31:01;;;;;;;3.63;2.42;;;15.20;40.80;;;;;;5101014;27;45193;-61
2023/12/04 10:33:30;;;;;;;3.28;2.40;;;15.30;40.70;;;;;;5102099;27;45149;-62
2023/12/04 10:35:57;;;;;;;3.53;2.35;;;15.30;40.80;;;;;;5096214;27;45161;-61
2023/12/04 10:38:26;;;;;;;4.03;2.38;;;15.30;40.70;;;;;;5092505;27;45219;-61
2023/12/04 10:40:53;;;;;;;4.03;2.70;;;15.30;40.50;;;;;;5104548;27;45067;-61
2023/12/04 10:43:23;;;;;;;3.42;2.55;;;15.30;40.60;;;;;;5099422;27;47480;-61
2023/12/04 10:45:51;;;;;;;3.45;2.20;;;15.30;40.60;;;;;;5105626;27;45097;-61
2023/12/04 10:48:19;;;;;;;3.90;2.35;;;15.30;40.70;;;;;;5103000;27;45096;-61
2023/12/04 10:50:47;;;;;;;3.22;2.08;;;15.30;40.60;;;;;;5094135;27;45086;-61
2023/12/04 10:53:15;;;;;;;3.50;2.50;;;15.30;40.70;;;;;;5092915;27;46711;-61
2023/12/04 10:55:44;;;;;;;4.88;2.10;;;15.20;40.60;;;;;;5102775;27;45164;-61
2023/12/04 10:58:14;;;;;;;3.83;2.42;;;15.20;40.70;;;;;;5103179;27;45205;-61
2023/12/04 11:00:44;;;;;;;3.80;2.40;;;15.30;40.80;;;;;;5086753;27;45109;-61
2023/12/04 11:03:14;;;;;;;3.38;2.60;;;15.30;40.80;;;;;;5089637;27;45407;-61
2023/12/04 11:05:43;;;;;;;4.13;2.42;;;15.30;40.70;;;;;;5091895;27;45160;-61
2023/12/04 11:08:18;;;;;;;4.22;2.15;;;15.20;40.70;;;;;;5082721;27;44683;-61
2023/12/04 11:10:56;;;;;;;3.92;2.40;;;15.30;40.60;;;;;;5089809;27;45194;-61
2023/12/04 11:13:29;;;;;;;3.72;2.38;;;15.30;40.60;;;;;;5088095;27;45183;-61
2023/12/04 11:16:02;;;;;;;3.42;2.30;;;15.30;40.60;;;;;;5097439;27;45134;-62
2023/12/04 11:18:33;;;;;;;3.75;2.30;;;15.30;40.60;;;;;;5091305;27;45134;-61
2023/12/04 11:21:04;;;;;;;3.53;2.33;;;15.40;40.80;;;;;;5086189;27;45178;-61
2023/12/04 11:23:32;;;;;;;3.05;2.10;;;15.40;42.20;;;;;;5085985;27;45147;-62
2023/12/04 11:26:01;;;;;;;2.47;2.10;;;15.40;40.90;;;;;;5086828;27;47064;-62
2023/12/04 11:28:29;;;;;;;3.83;2.40;;;15.40;40.80;;;;;;5087255;27;45194;-61
2023/12/04 11:30:56;;;;;;;3.05;2.15;;;15.40;40.80;;;;;;5093844;27;45406;-61
2023/12/04 11:33:23;;;;;;;3.72;2.30;;;15.40;41.00;;;;;;5091311;27;45189;-61
2023/12/04 11:35:51;;;;;;;4.18;2.47;;;15.40;40.90;;;;;;5087432;27;45105;-61
2023/12/04 11:38:18;;;;;;;3.33;2.20;;;15.40;40.80;;;;;;5088903;27;45327;-61
2023/12/04 11:40:46;;;;;;;3.10;2.30;;;15.30;40.80;;;;;;5085376;27;45259;-62
2023/12/04 11:43:26;;;;;;;3.47;2.30;;;15.30;41.00;;;;;;5082765;27;46575;-62
2023/12/04 11:45:52;;;;;;;3.25;2.30;;;15.30;41.10;;;;;;5080463;27;45287;-61
2023/12/04 11:48:24;;;;;;;3.05;2.17;;;15.30;41.20;;;;;;5088253;27;45314;-61
2023/12/04 11:50:51;;;;;;;2.63;2.20;;;15.20;41.20;;;;;;5086493;27;45161;-61
2023/12/04 11:53:20;;;;;;;3.08;2.30;;;15.20;41.40;;;;;;5083897;27;45243;-61
2023/12/04 11:55:47;;;;;;;4.13;2.50;;;15.20;41.50;;;;;;5088847;27;45425;-61
2023/12/04 11:58:14;;;;;;;4.63;2.40;;;15.20;41.60;;;;;;5087224;27;45459;-62
2023/12/04 12:00:43;;;;;;;6.50;2.63;;;15.20;41.70;;;;;;5089059;27;45263;-62
2023/12/04 12:03:10;;;;;;;3.45;2.40;;;15.20;42.00;;;;;;5084048;27;47097;-61
2023/12/04 12:05:40;;;;;;;4.35;2.53;;;15.20;42.00;;;;;;5082028;27;45214;-61
2023/12/04 12:08:08;;;;;;;3.15;2.10;;;15.20;42.00;;;;;;5086807;27;45165;-61
2023/12/04 12:10:35;;;;;;;3.95;2.60;;;15.20;42.00;;;;;;5086188;27;45178;-61
2023/12/04 12:13:02;;;;;;;3.42;2.17;;;15.30;42.20;;;;;;5089633;27;45136;-61
2023/12/04 12:15:29;;;;;;;3.50;2.38;;;15.30;42.10;;;;;;5095396;27;45142;-62
2023/12/04 12:17:58;;;;;;;3.75;2.22;;;15.30;41.40;;;;;;5097573;27;45165;-62
2023/12/04 12:20:25;;;;;;;3.20;2.22;;;15.30;40.80;;;;;;5100082;27;45203;-62
2023/12/04 12:22:53;;;;;;;6.10;2.63;;;15.30;40.70;;;;;;5104529;27;45436;-61
2023/12/04 12:25:20;;;;;;;3.25;2.25;;;15.30;40.80;;;;;;5099630;27;45205;-61
2023/12/04 12:27:47;;;;;;;4.30;2.53;;;15.20;40.70;;;;;;5100394;27;45129;-62
2023/12/04 12:30:14;;;;;;;4.13;2.55;;;15.20;40.50;;;;;;5084075;27;44693;-62
2023/12/04 12:32:41;;;;;;;4.72;2.50;;;15.20;40.50;;;;;;5081258;27;46995;-61
2023/12/04 12:35:09;;;;;;;4.50;2.50;;;15.20;40.40;;;;;;5085334;27;45790;-61
2023/12/04 12:37:36;;;;;;;3.75;2.60;;;15.20;40.50;;;;;;5081527;27;45208;-61
2023/12/04 12:40:09;;;;;;;4.50;2.80;;;15.10;40.30;;;;;;5081333;27;45426;-61
2023/12/04 12:42:37;;;;;;;2.25;1.83;;;15.10;40.30;;;;;;5087831;27;47980;-61
2023/12/04 12:45:04;;;;;;;4.28;2.60;;;15.10;40.70;;;;;;5085927;27;45145;-61
2023/12/04 12:47:31;;;;;;;3.70;2.63;;;15.10;42.00;;;;;;5091652;27;45208;-61